sensor_id;sensor_type;location;lat;lon;timestamp;P1;durP1;ratioP1;P2;durP2;ratioP2
36653;SDS011;22650;49.350;20.898;2022-12-04T00:01:22;179.48;;;74.18;;
36653;SDS011;22650;49.350;20.898;2022-12-04T00:03:57;205.68;;;77.43;;
36653;SDS011;22650;49.350;20.898;2022-12-04T00:06:33;167.98;;;68.88;;
36653;SDS011;22650;49.350;20.898;2022-12-04T00:09:06;176.75;;;71.82;;
36653;SDS011;22650;49.350;20.898;2022-12-04T00:11:40;178.98;;;70.35;;
36653;SDS011;22650;49.350;20.898;2022-12-04T00:14:13;190.15;;;69.82;;
36653;SDS011;22650;49.350;20.898;2022-12-04T00:16:47;195.98;;;71.72;;
36653;SDS011;22650;49.350;20.898;2022-12-04T00:19:21;164.63;;;63.92;;
36653;SDS011;22650;49.350;20.898;2022-12-04T00:21:56;182.75;;;74.18;;
36653;SDS011;22650;49.350;20.898;2022-12-04T00:24:29;176.02;;;63.75;;
36653;SDS011;22650;49.350;20.898;2022-12-04T00:27:03;187.80;;;71.32;;
36653;SDS011;22650;49.350;20.898;2022-12-04T00:29:36;147.27;;;57.95;;
36653;SDS011;22650;49.350;20.898;2022-12-04T00:32:10;172.35;;;66.95;;
36653;SDS011;22650;49.350;20.898;2022-12-04T00:34:43;185.27;;;70.63;;
36653;SDS011;22650;49.350;20.898;2022-12-04T00:37:18;183.32;;;70.63;;
36653;SDS011;22650;49.350;20.898;2022-12-04T00:39:51;167.05;;;67.32;;
36653;SDS011;22650;49.350;20.898;2022-12-04T00:42:25;176.88;;;65.47;;
36653;SDS011;22650;49.350;20.898;2022-12-04T00:44:59;176.48;;;63.75;;
36653;SDS011;22650;49.350;20.898;2022-12-04T00:47:32;169.05;;;63.90;;
36653;SDS011;22650;49.350;20.898;2022-12-04T00:50:06;169.35;;;71.63;;
36653;SDS011;22650;49.350;20.898;2022-12-04T00:52:42;163.13;;;67.40;;
36653;SDS011;22650;49.350;20.898;2022-12-04T00:55:15;189.48;;;68.13;;
36653;SDS011;22650;49.350;20.898;2022-12-04T00:57:49;168.93;;;66.68;;
36653;SDS011;22650;49.350;20.898;2022-12-04T01:00:29;158.57;;;63.03;;
36653;SDS011;22650;49.350;20.898;2022-12-04T01:03:03;139.70;;;56.13;;
36653;SDS011;22650;49.350;20.898;2022-12-04T01:05:38;173.25;;;68.22;;
36653;SDS011;22650;49.350;20.898;2022-12-04T01:08:14;143.95;;;61.78;;
36653;SDS011;22650;49.350;20.898;2022-12-04T01:10:47;143.43;;;58.13;;
36653;SDS011;22650;49.350;20.898;2022-12-04T01:13:21;152.55;;;63.50;;
36653;SDS011;22650;49.350;20.898;2022-12-04T01:15:54;164.45;;;63.92;;
36653;SDS011;22650;49.350;20.898;2022-12-04T01:18:28;133.73;;;53.45;;
36653;SDS011;22650;49.350;20.898;2022-12-04T01:21:01;129.77;;;53.70;;
36653;SDS011;22650;49.350;20.898;2022-12-04T01:23:36;140.32;;;56.80;;
36653;SDS011;22650;49.350;20.898;2022-12-04T01:26:10;139.43;;;52.08;;
36653;SDS011;22650;49.350;20.898;2022-12-04T01:28:44;136.85;;;51.47;;
36653;SDS011;22650;49.350;20.898;2022-12-04T01:31:18;121.40;;;51.35;;
36653;SDS011;22650;49.350;20.898;2022-12-04T01:33:52;120.97;;;49.78;;
36653;SDS011;22650;49.350;20.898;2022-12-04T01:36:27;129.27;;;51.70;;
36653;SDS011;22650;49.350;20.898;2022-12-04T01:39:02;113.72;;;45.78;;
36653;SDS011;22650;49.350;20.898;2022-12-04T01:41:35;117.10;;;46.97;;
36653;SDS011;22650;49.350;20.898;2022-12-04T01:44:10;125.55;;;47.10;;
36653;SDS011;22650;49.350;20.898;2022-12-04T01:46:46;111.32;;;43.38;;
36653;SDS011;22650;49.350;20.898;2022-12-04T01:49:24;97.93;;;41.80;;
36653;SDS011;22650;49.350;20.898;2022-12-04T01:52:02;86.88;;;34.55;;
36653;SDS011;22650;49.350;20.898;2022-12-04T01:54:41;84.55;;;35.00;;
36653;SDS011;22650;49.350;20.898;2022-12-04T01:57:18;95.95;;;36.72;;
36653;SDS011;22650;49.350;20.898;2022-12-04T01:59:56;86.07;;;34.25;;
36653;SDS011;22650;49.350;20.898;2022-12-04T02:02:36;105.63;;;39.72;;
36653;SDS011;22650;49.350;20.898;2022-12-04T02:05:12;102.57;;;40.65;;
36653;SDS011;22650;49.350;20.898;2022-12-04T02:07:48;107.15;;;37.35;;
36653;SDS011;22650;49.350;20.898;2022-12-04T02:10:28;94.32;;;34.25;;
36653;SDS011;22650;49.350;20.898;2022-12-04T02:13:09;84.72;;;34.75;;
36653;SDS011;22650;49.350;20.898;2022-12-04T02:15:53;70.07;;;30.30;;
36653;SDS011;22650;49.350;20.898;2022-12-04T02:18:34;69.53;;;27.95;;
36653;SDS011;22650;49.350;20.898;2022-12-04T02:21:13;75.65;;;30.95;;
36653;SDS011;22650;49.350;20.898;2022-12-04T02:23:58;72.57;;;28.50;;
36653;SDS011;22650;49.350;20.898;2022-12-04T02:26:54;74.20;;;30.73;;
36653;SDS011;22650;49.350;20.898;2022-12-04T02:29:33;70.32;;;27.70;;
36653;SDS011;22650;49.350;20.898;2022-12-04T02:32:12;70.25;;;25.85;;
36653;SDS011;22650;49.350;20.898;2022-12-04T02:34:52;61.65;;;25.67;;
36653;SDS011;22650;49.350;20.898;2022-12-04T02:37:32;62.05;;;26.92;;
36653;SDS011;22650;49.350;20.898;2022-12-04T02:40:08;60.58;;;26.38;;
36653;SDS011;22650;49.350;20.898;2022-12-04T02:42:50;68.82;;;27.35;;
36653;SDS011;22650;49.350;20.898;2022-12-04T02:45:32;62.90;;;27.73;;
36653;SDS011;22650;49.350;20.898;2022-12-04T02:48:10;63.10;;;26.27;;
36653;SDS011;22650;49.350;20.898;2022-12-04T02:50:48;60.60;;;26.20;;
36653;SDS011;22650;49.350;20.898;2022-12-04T02:53:26;56.90;;;23.83;;
36653;SDS011;22650;49.350;20.898;2022-12-04T02:56:04;58.40;;;24.98;;
36653;SDS011;22650;49.350;20.898;2022-12-04T02:58:41;55.97;;;22.33;;
36653;SDS011;22650;49.350;20.898;2022-12-04T03:01:21;65.10;;;25.20;;
36653;SDS011;22650;49.350;20.898;2022-12-04T03:03:59;65.35;;;26.25;;
36653;SDS011;22650;49.350;20.898;2022-12-04T03:06:38;66.00;;;27.50;;
36653;SDS011;22650;49.350;20.898;2022-12-04T03:09:14;52.58;;;22.15;;
36653;SDS011;22650;49.350;20.898;2022-12-04T03:11:53;58.65;;;24.05;;
36653;SDS011;22650;49.350;20.898;2022-12-04T03:14:30;52.90;;;24.50;;
36653;SDS011;22650;49.350;20.898;2022-12-04T03:17:09;62.47;;;25.17;;
36653;SDS011;22650;49.350;20.898;2022-12-04T03:19:49;74.82;;;29.02;;
36653;SDS011;22650;49.350;20.898;2022-12-04T03:22:26;79.93;;;30.60;;
36653;SDS011;22650;49.350;20.898;2022-12-04T03:25:01;66.40;;;27.63;;
36653;SDS011;22650;49.350;20.898;2022-12-04T03:27:37;67.43;;;29.85;;
36653;SDS011;22650;49.350;20.898;2022-12-04T03:30:18;67.00;;;28.10;;
36653;SDS011;22650;49.350;20.898;2022-12-04T03:32:55;63.65;;;27.75;;
36653;SDS011;22650;49.350;20.898;2022-12-04T03:35:37;75.32;;;30.60;;
36653;SDS011;22650;49.350;20.898;2022-12-04T03:38:16;75.45;;;28.40;;
36653;SDS011;22650;49.350;20.898;2022-12-04T03:40:53;70.97;;;29.00;;
36653;SDS011;22650;49.350;20.898;2022-12-04T03:43:32;65.80;;;25.58;;
36653;SDS011;22650;49.350;20.898;2022-12-04T03:46:11;53.05;;;24.58;;
36653;SDS011;22650;49.350;20.898;2022-12-04T03:48:52;58.20;;;23.98;;
36653;SDS011;22650;49.350;20.898;2022-12-04T03:51:32;67.78;;;25.63;;
36653;SDS011;22650;49.350;20.898;2022-12-04T03:54:11;60.00;;;25.48;;
36653;SDS011;22650;49.350;20.898;2022-12-04T03:56:48;58.50;;;25.77;;
36653;SDS011;22650;49.350;20.898;2022-12-04T03:59:25;60.30;;;26.00;;
36653;SDS011;22650;49.350;20.898;2022-12-04T04:02:02;65.93;;;25.67;;
36653;SDS011;22650;49.350;20.898;2022-12-04T04:04:39;55.33;;;25.42;;
36653;SDS011;22650;49.350;20.898;2022-12-04T04:07:15;56.30;;;21.63;;
36653;SDS011;22650;49.350;20.898;2022-12-04T04:09:54;52.00;;;23.52;;
36653;SDS011;22650;49.350;20.898;2022-12-04T04:12:31;49.70;;;23.13;;
36653;SDS011;22650;49.350;20.898;2022-12-04T04:15:11;66.82;;;25.50;;
36653;SDS011;22650;49.350;20.898;2022-12-04T04:18:05;55.08;;;23.95;;
36653;SDS011;22650;49.350;20.898;2022-12-04T04:21:00;53.65;;;24.48;;
36653;SDS011;22650;49.350;20.898;2022-12-04T04:24:06;85.57;;;24.58;;
36653;SDS011;22650;49.350;20.898;2022-12-04T04:26:57;61.67;;;25.88;;
36653;SDS011;22650;49.350;20.898;2022-12-04T04:29:31;55.33;;;24.52;;
36653;SDS011;22650;49.350;20.898;2022-12-04T04:32:06;50.03;;;21.85;;
36653;SDS011;22650;49.350;20.898;2022-12-04T04:34:47;55.85;;;23.55;;
36653;SDS011;22650;49.350;20.898;2022-12-04T04:37:28;70.85;;;25.98;;
36653;SDS011;22650;49.350;20.898;2022-12-04T04:40:10;54.58;;;22.98;;
36653;SDS011;22650;49.350;20.898;2022-12-04T04:42:48;63.22;;;25.98;;
36653;SDS011;22650;49.350;20.898;2022-12-04T04:45:29;64.72;;;26.95;;
36653;SDS011;22650;49.350;20.898;2022-12-04T04:48:07;53.28;;;22.75;;
36653;SDS011;22650;49.350;20.898;2022-12-04T04:50:43;64.57;;;25.67;;
36653;SDS011;22650;49.350;20.898;2022-12-04T04:53:20;65.55;;;24.02;;
36653;SDS011;22650;49.350;20.898;2022-12-04T04:55:57;64.50;;;27.48;;
36653;SDS011;22650;49.350;20.898;2022-12-04T04:58:31;62.53;;;24.52;;
36653;SDS011;22650;49.350;20.898;2022-12-04T05:01:06;51.72;;;21.45;;
36653;SDS011;22650;49.350;20.898;2022-12-04T05:03:41;49.22;;;21.25;;
36653;SDS011;22650;49.350;20.898;2022-12-04T05:06:15;50.63;;;21.15;;
36653;SDS011;22650;49.350;20.898;2022-12-04T05:08:50;58.10;;;22.70;;
36653;SDS011;22650;49.350;20.898;2022-12-04T05:11:23;58.00;;;23.25;;
36653;SDS011;22650;49.350;20.898;2022-12-04T05:13:57;52.05;;;22.42;;
36653;SDS011;22650;49.350;20.898;2022-12-04T05:16:30;54.85;;;21.67;;
36653;SDS011;22650;49.350;20.898;2022-12-04T05:19:04;53.90;;;19.83;;
36653;SDS011;22650;49.350;20.898;2022-12-04T05:21:55;52.05;;;19.83;;
36653;SDS011;22650;49.350;20.898;2022-12-04T05:24:30;47.90;;;20.83;;
36653;SDS011;22650;49.350;20.898;2022-12-04T05:27:03;48.58;;;19.13;;
36653;SDS011;22650;49.350;20.898;2022-12-04T05:29:37;51.13;;;22.85;;
36653;SDS011;22650;49.350;20.898;2022-12-04T05:32:10;62.65;;;22.70;;
36653;SDS011;22650;49.350;20.898;2022-12-04T05:34:45;47.80;;;21.15;;
36653;SDS011;22650;49.350;20.898;2022-12-04T05:37:19;51.30;;;20.88;;
36653;SDS011;22650;49.350;20.898;2022-12-04T05:39:54;56.90;;;22.15;;
36653;SDS011;22650;49.350;20.898;2022-12-04T05:42:28;54.83;;;20.65;;
36653;SDS011;22650;49.350;20.898;2022-12-04T05:45:01;44.42;;;21.73;;
36653;SDS011;22650;49.350;20.898;2022-12-04T05:47:36;46.90;;;19.00;;
36653;SDS011;22650;49.350;20.898;2022-12-04T05:50:11;50.92;;;21.60;;
36653;SDS011;22650;49.350;20.898;2022-12-04T05:52:45;44.42;;;19.85;;
36653;SDS011;22650;49.350;20.898;2022-12-04T05:55:19;45.95;;;18.63;;
36653;SDS011;22650;49.350;20.898;2022-12-04T05:57:53;44.17;;;19.38;;
36653;SDS011;22650;49.350;20.898;2022-12-04T06:00:27;59.50;;;22.90;;
36653;SDS011;22650;49.350;20.898;2022-12-04T06:03:01;53.72;;;22.95;;
36653;SDS011;22650;49.350;20.898;2022-12-04T06:05:34;51.80;;;22.10;;
36653;SDS011;22650;49.350;20.898;2022-12-04T06:08:08;54.20;;;22.83;;
36653;SDS011;22650;49.350;20.898;2022-12-04T06:10:42;40.15;;;18.17;;
36653;SDS011;22650;49.350;20.898;2022-12-04T06:13:16;46.88;;;19.70;;
36653;SDS011;22650;49.350;20.898;2022-12-04T06:15:49;39.50;;;16.35;;
36653;SDS011;22650;49.350;20.898;2022-12-04T06:18:23;43.80;;;17.60;;
36653;SDS011;22650;49.350;20.898;2022-12-04T06:20:56;37.85;;;15.98;;
36653;SDS011;22650;49.350;20.898;2022-12-04T06:23:30;36.67;;;15.23;;
36653;SDS011;22650;49.350;20.898;2022-12-04T06:26:07;45.45;;;17.98;;
36653;SDS011;22650;49.350;20.898;2022-12-04T06:28:40;48.85;;;20.27;;
36653;SDS011;22650;49.350;20.898;2022-12-04T06:31:15;41.78;;;18.83;;
36653;SDS011;22650;49.350;20.898;2022-12-04T06:33:49;51.78;;;20.80;;
36653;SDS011;22650;49.350;20.898;2022-12-04T06:36:24;48.83;;;20.98;;
36653;SDS011;22650;49.350;20.898;2022-12-04T06:38:57;41.90;;;18.92;;
36653;SDS011;22650;49.350;20.898;2022-12-04T06:41:32;49.17;;;20.45;;
36653;SDS011;22650;49.350;20.898;2022-12-04T06:44:06;53.72;;;19.60;;
36653;SDS011;22650;49.350;20.898;2022-12-04T06:46:42;53.50;;;21.63;;
36653;SDS011;22650;49.350;20.898;2022-12-04T06:49:18;61.83;;;25.65;;
36653;SDS011;22650;49.350;20.898;2022-12-04T06:51:53;48.85;;;23.17;;
36653;SDS011;22650;49.350;20.898;2022-12-04T06:54:27;61.08;;;26.23;;
36653;SDS011;22650;49.350;20.898;2022-12-04T06:57:02;67.50;;;26.80;;
36653;SDS011;22650;49.350;20.898;2022-12-04T06:59:35;72.63;;;29.60;;
36653;SDS011;22650;49.350;20.898;2022-12-04T07:02:09;62.88;;;25.80;;
36653;SDS011;22650;49.350;20.898;2022-12-04T07:04:42;79.55;;;30.80;;
36653;SDS011;22650;49.350;20.898;2022-12-04T07:07:16;76.70;;;30.77;;
36653;SDS011;22650;49.350;20.898;2022-12-04T07:09:49;69.15;;;29.08;;
36653;SDS011;22650;49.350;20.898;2022-12-04T07:12:27;76.30;;;29.23;;
36653;SDS011;22650;49.350;20.898;2022-12-04T07:15:00;59.45;;;24.98;;
36653;SDS011;22650;49.350;20.898;2022-12-04T07:17:33;71.18;;;31.02;;
36653;SDS011;22650;49.350;20.898;2022-12-04T07:20:07;69.95;;;28.08;;
36653;SDS011;22650;49.350;20.898;2022-12-04T07:22:41;72.90;;;30.23;;
36653;SDS011;22650;49.350;20.898;2022-12-04T07:25:14;70.65;;;29.60;;
36653;SDS011;22650;49.350;20.898;2022-12-04T07:27:49;79.10;;;31.55;;
36653;SDS011;22650;49.350;20.898;2022-12-04T07:30:23;88.70;;;34.97;;
36653;SDS011;22650;49.350;20.898;2022-12-04T07:32:56;83.03;;;38.03;;
36653;SDS011;22650;49.350;20.898;2022-12-04T07:35:30;93.30;;;36.55;;
36653;SDS011;22650;49.350;20.898;2022-12-04T07:38:03;81.72;;;34.80;;
36653;SDS011;22650;49.350;20.898;2022-12-04T07:40:36;103.47;;;40.00;;
36653;SDS011;22650;49.350;20.898;2022-12-04T07:43:11;85.35;;;36.85;;
36653;SDS011;22650;49.350;20.898;2022-12-04T07:45:45;118.72;;;46.10;;
36653;SDS011;22650;49.350;20.898;2022-12-04T07:48:18;121.78;;;45.58;;
36653;SDS011;22650;49.350;20.898;2022-12-04T07:51:00;112.60;;;46.63;;
36653;SDS011;22650;49.350;20.898;2022-12-04T07:53:34;117.18;;;47.47;;
36653;SDS011;22650;49.350;20.898;2022-12-04T07:56:08;122.68;;;49.97;;
36653;SDS011;22650;49.350;20.898;2022-12-04T07:58:44;129.45;;;56.17;;
36653;SDS011;22650;49.350;20.898;2022-12-04T08:01:19;135.00;;;56.17;;
36653;SDS011;22650;49.350;20.898;2022-12-04T08:03:55;122.28;;;50.70;;
36653;SDS011;22650;49.350;20.898;2022-12-04T08:06:31;111.18;;;46.28;;
36653;SDS011;22650;49.350;20.898;2022-12-04T08:09:05;129.77;;;51.50;;
36653;SDS011;22650;49.350;20.898;2022-12-04T08:11:41;147.25;;;62.70;;
36653;SDS011;22650;49.350;20.898;2022-12-04T08:14:15;154.20;;;63.70;;
36653;SDS011;22650;49.350;20.898;2022-12-04T08:16:49;138.60;;;57.58;;
36653;SDS011;22650;49.350;20.898;2022-12-04T08:19:23;119.03;;;47.20;;
36653;SDS011;22650;49.350;20.898;2022-12-04T08:21:57;98.53;;;41.00;;
36653;SDS011;22650;49.350;20.898;2022-12-04T08:24:30;91.03;;;37.40;;
36653;SDS011;22650;49.350;20.898;2022-12-04T08:27:04;64.43;;;30.30;;
36653;SDS011;22650;49.350;20.898;2022-12-04T08:29:38;78.85;;;35.08;;
36653;SDS011;22650;49.350;20.898;2022-12-04T08:32:12;94.53;;;39.78;;
36653;SDS011;22650;49.350;20.898;2022-12-04T08:34:45;70.15;;;35.33;;
36653;SDS011;22650;49.350;20.898;2022-12-04T08:37:26;80.40;;;36.30;;
36653;SDS011;22650;49.350;20.898;2022-12-04T08:39:59;62.63;;;28.23;;
36653;SDS011;22650;49.350;20.898;2022-12-04T08:42:33;64.55;;;27.63;;
36653;SDS011;22650;49.350;20.898;2022-12-04T08:45:08;62.60;;;27.60;;
36653;SDS011;22650;49.350;20.898;2022-12-04T08:47:43;61.67;;;26.08;;
36653;SDS011;22650;49.350;20.898;2022-12-04T08:50:23;70.95;;;27.65;;
36653;SDS011;22650;49.350;20.898;2022-12-04T08:52:56;72.63;;;28.23;;
36653;SDS011;22650;49.350;20.898;2022-12-04T08:55:31;84.07;;;34.58;;
36653;SDS011;22650;49.350;20.898;2022-12-04T08:58:06;97.38;;;37.88;;
36653;SDS011;22650;49.350;20.898;2022-12-04T09:00:41;87.00;;;32.05;;
36653;SDS011;22650;49.350;20.898;2022-12-04T09:03:15;94.95;;;39.00;;
36653;SDS011;22650;49.350;20.898;2022-12-04T09:05:56;83.07;;;32.25;;
36653;SDS011;22650;49.350;20.898;2022-12-04T09:08:31;72.25;;;29.35;;
36653;SDS011;22650;49.350;20.898;2022-12-04T09:11:06;76.35;;;33.92;;
36653;SDS011;22650;49.350;20.898;2022-12-04T09:13:41;81.95;;;33.75;;
36653;SDS011;22650;49.350;20.898;2022-12-04T09:16:18;84.25;;;35.83;;
36653;SDS011;22650;49.350;20.898;2022-12-04T09:18:53;68.53;;;28.88;;
36653;SDS011;22650;49.350;20.898;2022-12-04T09:21:28;55.97;;;25.58;;
36653;SDS011;22650;49.350;20.898;2022-12-04T09:24:01;40.20;;;19.80;;
36653;SDS011;22650;49.350;20.898;2022-12-04T09:26:35;42.20;;;19.27;;
36653;SDS011;22650;49.350;20.898;2022-12-04T09:29:09;33.85;;;16.73;;
36653;SDS011;22650;49.350;20.898;2022-12-04T09:31:44;35.20;;;16.55;;
36653;SDS011;22650;49.350;20.898;2022-12-04T09:34:21;33.83;;;16.60;;
36653;SDS011;22650;49.350;20.898;2022-12-04T09:36:55;31.10;;;14.80;;
36653;SDS011;22650;49.350;20.898;2022-12-04T09:39:29;37.50;;;16.90;;
36653;SDS011;22650;49.350;20.898;2022-12-04T09:42:16;45.47;;;21.45;;
36653;SDS011;22650;49.350;20.898;2022-12-04T09:45:06;41.75;;;21.25;;
36653;SDS011;22650;49.350;20.898;2022-12-04T09:47:48;33.60;;;17.40;;
36653;SDS011;22650;49.350;20.898;2022-12-04T09:50:25;49.15;;;22.58;;
36653;SDS011;22650;49.350;20.898;2022-12-04T09:53:05;34.08;;;16.40;;
36653;SDS011;22650;49.350;20.898;2022-12-04T09:55:46;25.15;;;12.68;;
36653;SDS011;22650;49.350;20.898;2022-12-04T09:58:30;38.65;;;17.23;;
36653;SDS011;22650;49.350;20.898;2022-12-04T10:03:53;26.48;;;13.77;;
36653;SDS011;22650;49.350;20.898;2022-12-04T10:06:38;32.42;;;14.35;;
36653;SDS011;22650;49.350;20.898;2022-12-04T10:09:18;28.80;;;14.32;;
36653;SDS011;22650;49.350;20.898;2022-12-04T10:11:58;25.80;;;13.23;;
36653;SDS011;22650;49.350;20.898;2022-12-04T10:14:47;38.45;;;17.63;;
36653;SDS011;22650;49.350;20.898;2022-12-04T10:17:39;30.95;;;15.85;;
36653;SDS011;22650;49.350;20.898;2022-12-04T10:20:27;38.25;;;16.80;;
36653;SDS011;22650;49.350;20.898;2022-12-04T10:23:19;36.60;;;18.45;;
36653;SDS011;22650;49.350;20.898;2022-12-04T10:26:08;44.38;;;20.67;;
36653;SDS011;22650;49.350;20.898;2022-12-04T10:28:47;37.53;;;17.10;;
36653;SDS011;22650;49.350;20.898;2022-12-04T10:31:27;35.92;;;15.32;;
36653;SDS011;22650;49.350;20.898;2022-12-04T10:34:04;47.45;;;21.10;;
36653;SDS011;22650;49.350;20.898;2022-12-04T10:36:50;32.22;;;17.05;;
36653;SDS011;22650;49.350;20.898;2022-12-04T10:39:27;41.72;;;18.15;;
36653;SDS011;22650;49.350;20.898;2022-12-04T10:42:10;37.65;;;18.05;;
36653;SDS011;22650;49.350;20.898;2022-12-04T10:44:48;31.90;;;16.10;;
36653;SDS011;22650;49.350;20.898;2022-12-04T10:47:23;38.47;;;17.70;;
36653;SDS011;22650;49.350;20.898;2022-12-04T10:49:58;34.75;;;16.65;;
36653;SDS011;22650;49.350;20.898;2022-12-04T10:52:35;40.78;;;18.30;;
36653;SDS011;22650;49.350;20.898;2022-12-04T10:55:08;34.05;;;18.00;;
36653;SDS011;22650;49.350;20.898;2022-12-04T10:57:43;34.03;;;17.63;;
36653;SDS011;22650;49.350;20.898;2022-12-04T11:00:25;36.67;;;16.98;;
36653;SDS011;22650;49.350;20.898;2022-12-04T11:03:08;33.80;;;18.90;;
36653;SDS011;22650;49.350;20.898;2022-12-04T11:05:54;37.63;;;18.45;;
36653;SDS011;22650;49.350;20.898;2022-12-04T11:08:32;42.60;;;20.30;;
36653;SDS011;22650;49.350;20.898;2022-12-04T11:11:09;32.08;;;17.20;;
36653;SDS011;22650;49.350;20.898;2022-12-04T11:13:45;27.25;;;14.23;;
36653;SDS011;22650;49.350;20.898;2022-12-04T11:16:29;26.83;;;13.93;;
36653;SDS011;22650;49.350;20.898;2022-12-04T11:19:17;24.75;;;13.77;;
36653;SDS011;22650;49.350;20.898;2022-12-04T11:21:53;21.30;;;10.98;;
36653;SDS011;22650;49.350;20.898;2022-12-04T11:24:31;19.88;;;9.95;;
36653;SDS011;22650;49.350;20.898;2022-12-04T11:27:06;17.23;;;9.43;;
36653;SDS011;22650;49.350;20.898;2022-12-04T11:29:48;22.50;;;10.93;;
36653;SDS011;22650;49.350;20.898;2022-12-04T11:32:23;15.48;;;9.13;;
36653;SDS011;22650;49.350;20.898;2022-12-04T11:34:58;17.52;;;8.32;;
36653;SDS011;22650;49.350;20.898;2022-12-04T11:37:37;19.15;;;9.27;;
36653;SDS011;22650;49.350;20.898;2022-12-04T11:40:17;16.38;;;8.70;;
36653;SDS011;22650;49.350;20.898;2022-12-04T11:43:02;14.95;;;8.05;;
36653;SDS011;22650;49.350;20.898;2022-12-04T11:45:36;16.35;;;8.52;;
36653;SDS011;22650;49.350;20.898;2022-12-04T11:48:13;15.70;;;8.50;;
36653;SDS011;22650;49.350;20.898;2022-12-04T11:50:49;14.43;;;7.50;;
36653;SDS011;22650;49.350;20.898;2022-12-04T11:53:32;14.52;;;8.07;;
36653;SDS011;22650;49.350;20.898;2022-12-04T11:56:18;13.35;;;7.00;;
36653;SDS011;22650;49.350;20.898;2022-12-04T11:59:00;14.63;;;6.95;;
36653;SDS011;22650;49.350;20.898;2022-12-04T12:01:45;9.45;;;5.15;;
36653;SDS011;22650;49.350;20.898;2022-12-04T12:04:48;12.60;;;4.30;;
36653;SDS011;22650;49.350;20.898;2022-12-04T12:07:37;5.43;;;2.28;;
36653;SDS011;22650;49.350;20.898;2022-12-04T12:10:16;15.32;;;7.93;;
36653;SDS011;22650;49.350;20.898;2022-12-04T12:12:58;17.90;;;9.52;;
36653;SDS011;22650;49.350;20.898;2022-12-04T12:15:39;8.88;;;4.95;;
36653;SDS011;22650;49.350;20.898;2022-12-04T12:18:23;11.38;;;6.00;;
36653;SDS011;22650;49.350;20.898;2022-12-04T12:21:07;7.57;;;4.20;;
36653;SDS011;22650;49.350;20.898;2022-12-04T12:23:47;9.55;;;5.22;;
36653;SDS011;22650;49.350;20.898;2022-12-04T12:26:28;10.05;;;5.60;;
36653;SDS011;22650;49.350;20.898;2022-12-04T12:29:16;10.35;;;5.18;;
36653;SDS011;22650;49.350;20.898;2022-12-04T12:32:04;13.40;;;7.03;;
36653;SDS011;22650;49.350;20.898;2022-12-04T12:34:45;14.95;;;7.28;;
36653;SDS011;22650;49.350;20.898;2022-12-04T12:37:20;19.90;;;11.65;;
36653;SDS011;22650;49.350;20.898;2022-12-04T12:39:58;14.40;;;6.68;;
36653;SDS011;22650;49.350;20.898;2022-12-04T12:42:37;7.97;;;4.90;;
36653;SDS011;22650;49.350;20.898;2022-12-04T12:45:18;7.53;;;4.43;;
36653;SDS011;22650;49.350;20.898;2022-12-04T12:47:59;10.33;;;5.80;;
36653;SDS011;22650;49.350;20.898;2022-12-04T12:50:43;8.90;;;5.28;;
36653;SDS011;22650;49.350;20.898;2022-12-04T12:53:39;9.60;;;5.45;;
36653;SDS011;22650;49.350;20.898;2022-12-04T12:56:20;8.15;;;4.38;;
36653;SDS011;22650;49.350;20.898;2022-12-04T12:59:03;8.35;;;4.90;;
36653;SDS011;22650;49.350;20.898;2022-12-04T13:01:44;7.95;;;4.65;;
36653;SDS011;22650;49.350;20.898;2022-12-04T13:04:30;9.60;;;5.88;;
36653;SDS011;22650;49.350;20.898;2022-12-04T13:07:13;9.65;;;5.32;;
36653;SDS011;22650;49.350;20.898;2022-12-04T13:09:59;11.93;;;6.00;;
36653;SDS011;22650;49.350;20.898;2022-12-04T13:12:39;7.78;;;4.90;;
36653;SDS011;22650;49.350;20.898;2022-12-04T13:15:16;11.85;;;5.50;;
36653;SDS011;22650;49.350;20.898;2022-12-04T13:17:54;10.20;;;5.93;;
36653;SDS011;22650;49.350;20.898;2022-12-04T13:20:30;10.88;;;5.45;;
36653;SDS011;22650;49.350;20.898;2022-12-04T13:23:12;11.13;;;6.25;;
36653;SDS011;22650;49.350;20.898;2022-12-04T13:25:54;13.25;;;6.70;;
36653;SDS011;22650;49.350;20.898;2022-12-04T13:28:37;10.82;;;5.90;;
36653;SDS011;22650;49.350;20.898;2022-12-04T13:31:21;11.57;;;6.40;;
36653;SDS011;22650;49.350;20.898;2022-12-04T13:34:11;9.95;;;5.97;;
36653;SDS011;22650;49.350;20.898;2022-12-04T13:37:06;14.30;;;6.60;;
36653;SDS011;22650;49.350;20.898;2022-12-04T13:43:11;13.57;;;6.50;;
36653;SDS011;22650;49.350;20.898;2022-12-04T13:48:40;12.30;;;6.38;;
36653;SDS011;22650;49.350;20.898;2022-12-04T13:51:23;17.70;;;7.57;;
36653;SDS011;22650;49.350;20.898;2022-12-04T13:54:25;11.48;;;7.20;;
36653;SDS011;22650;49.350;20.898;2022-12-04T13:57:15;10.68;;;6.13;;
36653;SDS011;22650;49.350;20.898;2022-12-04T14:00:00;13.60;;;6.95;;
36653;SDS011;22650;49.350;20.898;2022-12-04T14:02:43;12.88;;;8.10;;
36653;SDS011;22650;49.350;20.898;2022-12-04T14:05:27;16.92;;;7.93;;
36653;SDS011;22650;49.350;20.898;2022-12-04T14:08:05;15.05;;;6.55;;
36653;SDS011;22650;49.350;20.898;2022-12-04T14:10:39;14.38;;;6.72;;
36653;SDS011;22650;49.350;20.898;2022-12-04T14:13:17;15.00;;;6.85;;
36653;SDS011;22650;49.350;20.898;2022-12-04T14:16:01;11.27;;;5.75;;
36653;SDS011;22650;49.350;20.898;2022-12-04T14:21:09;14.13;;;8.25;;
36653;SDS011;22650;49.350;20.898;2022-12-04T14:23:44;11.60;;;6.70;;
36653;SDS011;22650;49.350;20.898;2022-12-04T14:26:23;10.43;;;5.35;;
36653;SDS011;22650;49.350;20.898;2022-12-04T14:32:20;17.60;;;8.93;;
36653;SDS011;22650;49.350;20.898;2022-12-04T14:34:56;25.33;;;13.57;;
36653;SDS011;22650;49.350;20.898;2022-12-04T14:37:31;31.50;;;17.48;;
36653;SDS011;22650;49.350;20.898;2022-12-04T14:40:15;19.65;;;8.82;;
36653;SDS011;22650;49.350;20.898;2022-12-04T14:42:52;18.63;;;9.30;;
36653;SDS011;22650;49.350;20.898;2022-12-04T14:45:28;23.63;;;9.88;;
36653;SDS011;22650;49.350;20.898;2022-12-04T14:51:06;20.45;;;8.27;;
36653;SDS011;22650;49.350;20.898;2022-12-04T14:53:47;34.42;;;16.08;;
36653;SDS011;22650;49.350;20.898;2022-12-04T14:56:27;21.00;;;10.40;;
36653;SDS011;22650;49.350;20.898;2022-12-04T14:59:14;17.95;;;8.13;;
36653;SDS011;22650;49.350;20.898;2022-12-04T15:01:52;30.02;;;12.27;;
36653;SDS011;22650;49.350;20.898;2022-12-04T15:04:27;23.52;;;10.50;;
36653;SDS011;22650;49.350;20.898;2022-12-04T15:07:03;20.80;;;10.68;;
36653;SDS011;22650;49.350;20.898;2022-12-04T15:09:38;20.55;;;8.50;;
36653;SDS011;22650;49.350;20.898;2022-12-04T15:12:41;23.27;;;11.90;;
36653;SDS011;22650;49.350;20.898;2022-12-04T15:15:19;21.85;;;10.55;;
36653;SDS011;22650;49.350;20.898;2022-12-04T15:17:56;24.85;;;11.23;;
36653;SDS011;22650;49.350;20.898;2022-12-04T15:20:32;21.52;;;10.73;;
36653;SDS011;22650;49.350;20.898;2022-12-04T15:23:10;49.88;;;21.77;;
36653;SDS011;22650;49.350;20.898;2022-12-04T15:25:47;45.25;;;21.88;;
36653;SDS011;22650;49.350;20.898;2022-12-04T15:28:25;52.20;;;23.77;;
36653;SDS011;22650;49.350;20.898;2022-12-04T15:31:01;44.10;;;18.63;;